GMTN Airport Information

Runway Information
Runway 06 Length 7546 ft width 148 ft
Elevation 13 ft Threshold 0 ft Heading 54
Runway 24 Length 7546 ft Width 148 ft
Elevation 10 ft Threshold 0 ft Heading 234
Airport Frequencies
Type TWR Name TETOUAN TW Frequency 119 MHZ
Airport Navaids
Type VOR-DME Name Tetouan Frequency 117300 KHZ
Type NDB Name Saniat Rmel Frequency 388 KHZ
Airport Weather Information & NOTAM
ADDS - METARS form results

(0309 UTC 23 January 2022)
Data provider http://aviationweather.gov/metar/data/
 
METAR text: GMTN 230300Z AUTO 11012KT 14/10 Q1023
Conditions at: GMTN (SANIA RAMEL/TETO, MA) observed 0300 UTC 23 January 2022
Temperature: 14.0°C (57°F)
Dewpoint: 10.0°C (50°F) [RH = 77%]
Pressure (altimeter): 30.21 inches Hg (1023.0 mb)
Winds: from the ESE (110 degrees) at 14 MPH (12 knots; 6.2 m/s)
Visibility: missing
Ceiling: unknown
Clouds: missing
Weather: no significant weather observed at this time